sensor_id;sensor_type;location;lat;lon;timestamp;pressure;altitude;pressure_sealevel;temperature;humidity
29909;BME280;36247;51.952;6.146;2023-04-28T00:01:27;101319.97;;;8.47;100.00
29909;BME280;36247;51.952;6.146;2023-04-28T00:03:53;101311.22;;;8.48;100.00
29909;BME280;36247;51.952;6.146;2023-04-28T00:06:19;101312.69;;;8.40;100.00
29909;BME280;36247;51.952;6.146;2023-04-28T00:08:45;101308.00;;;8.31;100.00
29909;BME280;36247;51.952;6.146;2023-04-28T00:11:10;101296.84;;;8.40;100.00
29909;BME280;36247;51.952;6.146;2023-04-28T00:13:37;101298.63;;;8.41;100.00
29909;BME280;36247;51.952;6.146;2023-04-28T00:16:03;101276.81;;;8.45;100.00
29909;BME280;36247;51.952;6.146;2023-04-28T00:18:29;101279.44;;;8.45;100.00
29909;BME280;36247;51.952;6.146;2023-04-28T00:20:55;101266.91;;;8.39;100.00
29909;BME280;36247;51.952;6.146;2023-04-28T00:23:20;101266.16;;;8.43;100.00
29909;BME280;36247;51.952;6.146;2023-04-28T00:25:53;101276.88;;;8.48;100.00
29909;BME280;36247;51.952;6.146;2023-04-28T00:28:19;101289.09;;;8.44;100.00
29909;BME280;36247;51.952;6.146;2023-04-28T00:30:45;101279.63;;;8.51;100.00
29909;BME280;36247;51.952;6.146;2023-04-28T00:33:11;101279.19;;;8.39;100.00
29909;BME280;36247;51.952;6.146;2023-04-28T00:35:36;101267.44;;;8.27;100.00
29909;BME280;36247;51.952;6.146;2023-04-28T00:38:02;101259.75;;;8.35;100.00
29909;BME280;36247;51.952;6.146;2023-04-28T00:40:37;101264.72;;;8.24;100.00
29909;BME280;36247;51.952;6.146;2023-04-28T00:43:05;101273.50;;;8.25;100.00
29909;BME280;36247;51.952;6.146;2023-04-28T00:45:30;101269.31;;;8.03;100.00
29909;BME280;36247;51.952;6.146;2023-04-28T00:47:57;101255.59;;;8.15;100.00
29909;BME280;36247;51.952;6.146;2023-04-28T00:50:24;101257.00;;;8.02;100.00
29909;BME280;36247;51.952;6.146;2023-04-28T00:52:51;101251.50;;;8.24;100.00
29909;BME280;36247;51.952;6.146;2023-04-28T00:55:17;101254.16;;;8.24;100.00
29909;BME280;36247;51.952;6.146;2023-04-28T00:57:44;101247.63;;;8.13;100.00
29909;BME280;36247;51.952;6.146;2023-04-28T01:00:11;101247.69;;;8.15;100.00
29909;BME280;36247;51.952;6.146;2023-04-28T01:02:39;101233.78;;;8.20;100.00
29909;BME280;36247;51.952;6.146;2023-04-28T01:05:07;101231.16;;;8.20;100.00
29909;BME280;36247;51.952;6.146;2023-04-28T01:07:35;101213.59;;;8.22;100.00
29909;BME280;36247;51.952;6.146;2023-04-28T01:10:06;101203.25;;;8.28;100.00
29909;BME280;36247;51.952;6.146;2023-04-28T01:12:33;101199.81;;;8.33;100.00
29909;BME280;36247;51.952;6.146;2023-04-28T01:14:59;101199.16;;;8.40;100.00
29909;BME280;36247;51.952;6.146;2023-04-28T01:17:27;101206.16;;;8.38;100.00
29909;BME280;36247;51.952;6.146;2023-04-28T01:19:52;101205.31;;;8.40;100.00
29909;BME280;36247;51.952;6.146;2023-04-28T01:22:18;101200.22;;;8.45;100.00
29909;BME280;36247;51.952;6.146;2023-04-28T01:24:45;101199.09;;;8.38;100.00
29909;BME280;36247;51.952;6.146;2023-04-28T01:27:12;101201.13;;;8.45;100.00
29909;BME280;36247;51.952;6.146;2023-04-28T01:29:39;101203.88;;;8.50;100.00
29909;BME280;36247;51.952;6.146;2023-04-28T01:32:05;101197.72;;;8.50;100.00
29909;BME280;36247;51.952;6.146;2023-04-28T01:34:33;101205.03;;;8.60;100.00
29909;BME280;36247;51.952;6.146;2023-04-28T01:36:59;101197.94;;;8.57;100.00
29909;BME280;36247;51.952;6.146;2023-04-28T01:39:24;101205.22;;;8.66;100.00
29909;BME280;36247;51.952;6.146;2023-04-28T01:41:50;101204.13;;;8.59;100.00
29909;BME280;36247;51.952;6.146;2023-04-28T01:44:15;101210.50;;;8.66;100.00
29909;BME280;36247;51.952;6.146;2023-04-28T01:46:42;101215.28;;;8.49;100.00
29909;BME280;36247;51.952;6.146;2023-04-28T01:49:08;101212.19;;;8.34;100.00
29909;BME280;36247;51.952;6.146;2023-04-28T01:51:33;101205.09;;;8.33;100.00
29909;BME280;36247;51.952;6.146;2023-04-28T01:54:00;101195.13;;;8.22;100.00
29909;BME280;36247;51.952;6.146;2023-04-28T01:56:26;101188.84;;;8.17;100.00
29909;BME280;36247;51.952;6.146;2023-04-28T01:58:54;101188.22;;;8.26;100.00
29909;BME280;36247;51.952;6.146;2023-04-28T02:01:19;101187.03;;;8.16;100.00
29909;BME280;36247;51.952;6.146;2023-04-28T02:03:45;101193.94;;;8.11;100.00
29909;BME280;36247;51.952;6.146;2023-04-28T02:06:10;101196.53;;;8.09;100.00
29909;BME280;36247;51.952;6.146;2023-04-28T02:08:36;101201.72;;;8.06;100.00
29909;BME280;36247;51.952;6.146;2023-04-28T02:11:04;101187.75;;;8.10;100.00
29909;BME280;36247;51.952;6.146;2023-04-28T02:13:30;101185.94;;;8.08;100.00
29909;BME280;36247;51.952;6.146;2023-04-28T02:15:59;101186.59;;;8.01;100.00
29909;BME280;36247;51.952;6.146;2023-04-28T02:18:25;101176.09;;;8.02;100.00
29909;BME280;36247;51.952;6.146;2023-04-28T02:20:51;101163.53;;;7.95;100.00
29909;BME280;36247;51.952;6.146;2023-04-28T02:23:17;101164.81;;;8.08;100.00
29909;BME280;36247;51.952;6.146;2023-04-28T02:25:42;101160.44;;;8.08;100.00
29909;BME280;36247;51.952;6.146;2023-04-28T02:28:11;101162.41;;;8.16;100.00
29909;BME280;36247;51.952;6.146;2023-04-28T02:30:38;101164.41;;;8.24;100.00
29909;BME280;36247;51.952;6.146;2023-04-28T02:33:05;101162.47;;;8.19;100.00
29909;BME280;36247;51.952;6.146;2023-04-28T02:35:30;101164.41;;;8.24;100.00
29909;BME280;36247;51.952;6.146;2023-04-28T02:37:56;101161.22;;;8.06;100.00
29909;BME280;36247;51.952;6.146;2023-04-28T02:40:22;101162.09;;;8.05;100.00
29909;BME280;36247;51.952;6.146;2023-04-28T02:42:47;101154.22;;;8.06;100.00
29909;BME280;36247;51.952;6.146;2023-04-28T02:45:13;101144.47;;;8.04;100.00
29909;BME280;36247;51.952;6.146;2023-04-28T02:47:39;101142.88;;;8.10;100.00
29909;BME280;36247;51.952;6.146;2023-04-28T02:50:05;101149.69;;;8.02;100.00
29909;BME280;36247;51.952;6.146;2023-04-28T02:52:32;101147.41;;;8.15;100.00
29909;BME280;36247;51.952;6.146;2023-04-28T02:54:57;101149.25;;;8.17;100.00
29909;BME280;36247;51.952;6.146;2023-04-28T02:57:24;101137.00;;;8.21;100.00
29909;BME280;36247;51.952;6.146;2023-04-28T02:59:50;101139.41;;;8.11;100.00
29909;BME280;36247;51.952;6.146;2023-04-28T03:02:15;101134.53;;;7.95;100.00
29909;BME280;36247;51.952;6.146;2023-04-28T03:04:42;101133.81;;;8.01;100.00
29909;BME280;36247;51.952;6.146;2023-04-28T03:07:08;101132.19;;;8.06;100.00
29909;BME280;36247;51.952;6.146;2023-04-28T03:09:37;101125.25;;;8.08;100.00
29909;BME280;36247;51.952;6.146;2023-04-28T03:12:02;101117.16;;;8.02;100.00
29909;BME280;36247;51.952;6.146;2023-04-28T03:14:30;101097.75;;;8.01;100.00
29909;BME280;36247;51.952;6.146;2023-04-28T03:16:56;101094.03;;;7.93;100.00
29909;BME280;36247;51.952;6.146;2023-04-28T03:19:22;101086.81;;;7.87;100.00
29909;BME280;36247;51.952;6.146;2023-04-28T03:21:47;101079.22;;;7.98;100.00
29909;BME280;36247;51.952;6.146;2023-04-28T03:24:13;101080.72;;;7.88;100.00
29909;BME280;36247;51.952;6.146;2023-04-28T03:26:38;101079.91;;;7.92;100.00
29909;BME280;36247;51.952;6.146;2023-04-28T03:29:05;101074.97;;;8.03;100.00
29909;BME280;36247;51.952;6.146;2023-04-28T03:31:32;101071.41;;;8.03;100.00
29909;BME280;36247;51.952;6.146;2023-04-28T03:33:57;101058.88;;;7.94;100.00
29909;BME280;36247;51.952;6.146;2023-04-28T03:36:24;101060.88;;;8.03;100.00
29909;BME280;36247;51.952;6.146;2023-04-28T03:38:49;101061.53;;;7.95;100.00
29909;BME280;36247;51.952;6.146;2023-04-28T03:41:15;101063.66;;;8.09;100.00
29909;BME280;36247;51.952;6.146;2023-04-28T03:43:59;101060.31;;;8.15;100.00
29909;BME280;36247;51.952;6.146;2023-04-28T03:46:30;101057.88;;;8.22;100.00
29909;BME280;36247;51.952;6.146;2023-04-28T03:48:57;101059.78;;;8.28;100.00
29909;BME280;36247;51.952;6.146;2023-04-28T03:51:23;101053.78;;;8.34;100.00
29909;BME280;36247;51.952;6.146;2023-04-28T03:53:49;101066.00;;;8.28;100.00
29909;BME280;36247;51.952;6.146;2023-04-28T03:56:14;101059.06;;;8.34;100.00
29909;BME280;36247;51.952;6.146;2023-04-28T03:58:40;101059.09;;;8.35;100.00
29909;BME280;36247;51.952;6.146;2023-04-28T04:01:06;101061.56;;;8.27;100.00
29909;BME280;36247;51.952;6.146;2023-04-28T04:03:32;101052.78;;;8.28;100.00
29909;BME280;36247;51.952;6.146;2023-04-28T04:05:57;101056.13;;;8.21;100.00
29909;BME280;36247;51.952;6.146;2023-04-28T04:08:23;101051.88;;;8.28;100.00
29909;BME280;36247;51.952;6.146;2023-04-28T04:10:48;101052.00;;;8.33;100.00
29909;BME280;36247;51.952;6.146;2023-04-28T04:13:14;101046.03;;;8.40;100.00
29909;BME280;36247;51.952;6.146;2023-04-28T04:15:42;101043.88;;;8.25;100.00
29909;BME280;36247;51.952;6.146;2023-04-28T04:18:08;101044.94;;;8.32;100.00
29909;BME280;36247;51.952;6.146;2023-04-28T04:20:53;101047.41;;;8.25;100.00
29909;BME280;36247;51.952;6.146;2023-04-28T04:23:21;101042.03;;;8.22;100.00
29909;BME280;36247;51.952;6.146;2023-04-28T04:25:46;101034.19;;;8.25;100.00
29909;BME280;36247;51.952;6.146;2023-04-28T04:28:12;101033.47;;;8.31;100.00
29909;BME280;36247;51.952;6.146;2023-04-28T04:30:38;101042.28;;;8.30;100.00
29909;BME280;36247;51.952;6.146;2023-04-28T04:33:03;101035.44;;;8.38;100.00
29909;BME280;36247;51.952;6.146;2023-04-28T04:35:30;101035.13;;;8.26;100.00
29909;BME280;36247;51.952;6.146;2023-04-28T04:37:56;101042.38;;;8.35;100.00
29909;BME280;36247;51.952;6.146;2023-04-28T04:40:22;101037.16;;;8.36;100.00
29909;BME280;36247;51.952;6.146;2023-04-28T04:42:48;101023.00;;;8.34;100.00
29909;BME280;36247;51.952;6.146;2023-04-28T04:45:17;101016.06;;;8.38;100.00
29909;BME280;36247;51.952;6.146;2023-04-28T04:47:43;101012.44;;;8.34;100.00
29909;BME280;36247;51.952;6.146;2023-04-28T04:50:10;101016.69;;;8.27;100.00
29909;BME280;36247;51.952;6.146;2023-04-28T04:52:39;101010.13;;;8.45;100.00
29909;BME280;36247;51.952;6.146;2023-04-28T04:55:05;101003.94;;;8.44;100.00
29909;BME280;36247;51.952;6.146;2023-04-28T04:57:37;101002.06;;;8.42;100.00
29909;BME280;36247;51.952;6.146;2023-04-28T05:00:26;101003.06;;;8.44;100.00
29909;BME280;36247;51.952;6.146;2023-04-28T05:02:56;101005.00;;;8.51;100.00
29909;BME280;36247;51.952;6.146;2023-04-28T05:05:22;101010.41;;;8.57;100.00
29909;BME280;36247;51.952;6.146;2023-04-28T05:08:04;101015.84;;;8.63;100.00
29909;BME280;36247;51.952;6.146;2023-04-28T05:10:30;101015.94;;;8.67;100.00
29909;BME280;36247;51.952;6.146;2023-04-28T05:12:56;101012.44;;;8.68;100.00
29909;BME280;36247;51.952;6.146;2023-04-28T05:15:22;101003.50;;;8.62;100.00
29909;BME280;36247;51.952;6.146;2023-04-28T05:18:08;101001.88;;;8.68;100.00
29909;BME280;36247;51.952;6.146;2023-04-28T05:20:36;100992.38;;;8.76;100.00
29909;BME280;36247;51.952;6.146;2023-04-28T05:23:03;100989.88;;;8.82;100.00
29909;BME280;36247;51.952;6.146;2023-04-28T05:25:28;100990.72;;;8.79;100.00
29909;BME280;36247;51.952;6.146;2023-04-28T05:27:55;100981.81;;;8.76;100.00
29909;BME280;36247;51.952;6.146;2023-04-28T05:30:20;100979.91;;;8.70;100.00
29909;BME280;36247;51.952;6.146;2023-04-28T05:32:47;100980.16;;;8.79;100.00
29909;BME280;36247;51.952;6.146;2023-04-28T05:35:12;100981.00;;;8.78;100.00
29909;BME280;36247;51.952;6.146;2023-04-28T05:37:39;100973.34;;;8.91;100.00
29909;BME280;36247;51.952;6.146;2023-04-28T05:40:08;100968.97;;;8.91;100.00
29909;BME280;36247;51.952;6.146;2023-04-28T05:42:34;100961.19;;;8.97;100.00
29909;BME280;36247;51.952;6.146;2023-04-28T05:45:00;100963.16;;;9.08;100.00
29909;BME280;36247;51.952;6.146;2023-04-28T05:47:25;100960.56;;;9.09;100.00
29909;BME280;36247;51.952;6.146;2023-04-28T05:49:51;100963.94;;;9.04;100.00
29909;BME280;36247;51.952;6.146;2023-04-28T05:52:17;100966.78;;;9.13;100.00
29909;BME280;36247;51.952;6.146;2023-04-28T05:54:43;100959.91;;;9.20;100.00
29909;BME280;36247;51.952;6.146;2023-04-28T05:57:08;100958.00;;;9.14;100.00
29909;BME280;36247;51.952;6.146;2023-04-28T05:59:34;100963.34;;;9.17;100.00
29909;BME280;36247;51.952;6.146;2023-04-28T06:02:00;100960.22;;;9.35;100.00
29909;BME280;36247;51.952;6.146;2023-04-28T06:04:25;100969.00;;;9.34;100.00
29909;BME280;36247;51.952;6.146;2023-04-28T06:06:51;100966.34;;;9.34;100.00
29909;BME280;36247;51.952;6.146;2023-04-28T06:09:17;100968.16;;;9.37;100.00
29909;BME280;36247;51.952;6.146;2023-04-28T06:11:42;100968.38;;;9.47;100.00
29909;BME280;36247;51.952;6.146;2023-04-28T06:14:08;100973.66;;;9.46;100.00
29909;BME280;36247;51.952;6.146;2023-04-28T06:16:33;100974.84;;;9.62;100.00
29909;BME280;36247;51.952;6.146;2023-04-28T06:19:00;100957.94;;;9.55;100.00
29909;BME280;36247;51.952;6.146;2023-04-28T06:21:26;100977.28;;;9.51;100.00
29909;BME280;36247;51.952;6.146;2023-04-28T06:23:52;100981.03;;;9.62;100.00
29909;BME280;36247;51.952;6.146;2023-04-28T06:26:19;100984.91;;;9.37;100.00
29909;BME280;36247;51.952;6.146;2023-04-28T06:28:45;100987.66;;;9.42;100.00
29909;BME280;36247;51.952;6.146;2023-04-28T06:31:11;100990.69;;;9.60;100.00
29909;BME280;36247;51.952;6.146;2023-04-28T06:33:38;100989.97;;;9.67;100.00
29909;BME280;36247;51.952;6.146;2023-04-28T06:36:05;101002.19;;;9.62;100.00
29909;BME280;36247;51.952;6.146;2023-04-28T06:38:32;100996.91;;;9.62;100.00
29909;BME280;36247;51.952;6.146;2023-04-28T06:40:57;100983.97;;;9.78;100.00
29909;BME280;36247;51.952;6.146;2023-04-28T06:43:23;100970.63;;;9.71;100.00
29909;BME280;36247;51.952;6.146;2023-04-28T06:45:58;100971.50;;;9.70;100.00
29909;BME280;36247;51.952;6.146;2023-04-28T06:48:25;100971.59;;;9.75;100.00
29909;BME280;36247;51.952;6.146;2023-04-28T06:50:51;100976.19;;;9.85;100.00
29909;BME280;36247;51.952;6.146;2023-04-28T06:53:16;100978.03;;;9.91;100.00
29909;BME280;36247;51.952;6.146;2023-04-28T06:55:42;100982.50;;;9.94;100.00
29909;BME280;36247;51.952;6.146;2023-04-28T06:58:09;100983.28;;;9.88;100.00
29909;BME280;36247;51.952;6.146;2023-04-28T07:00:38;100980.97;;;10.05;100.00
29909;BME280;36247;51.952;6.146;2023-04-28T07:03:05;100964.31;;;10.11;100.00
29909;BME280;36247;51.952;6.146;2023-04-28T07:05:31;100964.66;;;10.32;100.00
29909;BME280;36247;51.952;6.146;2023-04-28T07:07:57;100967.91;;;10.16;100.00
29909;BME280;36247;51.952;6.146;2023-04-28T07:10:23;100958.75;;;10.47;100.00
29909;BME280;36247;51.952;6.146;2023-04-28T07:12:49;100950.94;;;10.55;100.00
29909;BME280;36247;51.952;6.146;2023-04-28T07:15:17;100946.72;;;10.66;100.00
29909;BME280;36247;51.952;6.146;2023-04-28T07:17:43;100945.63;;;10.55;100.00
29909;BME280;36247;51.952;6.146;2023-04-28T07:20:09;100953.06;;;10.79;100.00
29909;BME280;36247;51.952;6.146;2023-04-28T07:22:35;100951.44;;;10.87;100.00
29909;BME280;36247;51.952;6.146;2023-04-28T07:25:05;100951.72;;;11.10;100.00
29909;BME280;36247;51.952;6.146;2023-04-28T07:27:32;100947.31;;;11.09;100.00
29909;BME280;36247;51.952;6.146;2023-04-28T07:29:57;100945.84;;;11.33;100.00
29909;BME280;36247;51.952;6.146;2023-04-28T07:32:23;100950.13;;;11.23;100.00
29909;BME280;36247;51.952;6.146;2023-04-28T07:34:49;100955.53;;;11.29;100.00
29909;BME280;36247;51.952;6.146;2023-04-28T07:37:15;100953.44;;;11.05;100.00
29909;BME280;36247;51.952;6.146;2023-04-28T07:39:43;100951.72;;;11.09;100.00
29909;BME280;36247;51.952;6.146;2023-04-28T07:42:09;100951.91;;;11.23;100.00
29909;BME280;36247;51.952;6.146;2023-04-28T07:44:35;100955.22;;;11.06;100.00
29909;BME280;36247;51.952;6.146;2023-04-28T07:47:01;100948.78;;;10.89;100.00
29909;BME280;36247;51.952;6.146;2023-04-28T07:49:28;100953.13;;;10.84;100.00
29909;BME280;36247;51.952;6.146;2023-04-28T07:51:55;100949.44;;;10.72;100.00
29909;BME280;36247;51.952;6.146;2023-04-28T07:54:21;100946.16;;;10.89;100.00
29909;BME280;36247;51.952;6.146;2023-04-28T07:56:47;100941.84;;;10.99;100.00
29909;BME280;36247;51.952;6.146;2023-04-28T07:59:14;100941.03;;;11.04;100.00
29909;BME280;36247;51.952;6.146;2023-04-28T08:01:39;100945.44;;;11.01;100.00
29909;BME280;36247;51.952;6.146;2023-04-28T08:04:05;100946.50;;;11.15;100.00
29909;BME280;36247;51.952;6.146;2023-04-28T08:06:35;100948.59;;;11.39;100.00
29909;BME280;36247;51.952;6.146;2023-04-28T08:09:09;100941.47;;;11.38;100.00
29909;BME280;36247;51.952;6.146;2023-04-28T08:11:39;100938.75;;;11.32;100.00
29909;BME280;36247;51.952;6.146;2023-04-28T08:14:05;100931.69;;;11.34;100.00
29909;BME280;36247;51.952;6.146;2023-04-28T08:16:30;100930.94;;;11.44;100.00
29909;BME280;36247;51.952;6.146;2023-04-28T08:18:57;100926.56;;;11.46;100.00
29909;BME280;36247;51.952;6.146;2023-04-28T08:21:23;100924.09;;;11.63;100.00
29909;BME280;36247;51.952;6.146;2023-04-28T08:23:49;100925.25;;;11.90;100.00
29909;BME280;36247;51.952;6.146;2023-04-28T08:26:15;100939.19;;;11.68;100.00
29909;BME280;36247;51.952;6.146;2023-04-28T08:28:40;100935.56;;;11.61;100.00
29909;BME280;36247;51.952;6.146;2023-04-28T08:31:07;100930.56;;;11.90;100.00
29909;BME280;36247;51.952;6.146;2023-04-28T08:33:34;100925.50;;;12.16;100.00
29909;BME280;36247;51.952;6.146;2023-04-28T08:36:00;100935.44;;;12.36;100.00
29909;BME280;36247;51.952;6.146;2023-04-28T08:38:25;100931.91;;;12.42;100.00
29909;BME280;36247;51.952;6.146;2023-04-28T08:40:51;100917.75;;;12.40;100.00
29909;BME280;36247;51.952;6.146;2023-04-28T08:43:17;100913.19;;;12.26;100.00
29909;BME280;36247;51.952;6.146;2023-04-28T08:45:45;100920.09;;;12.03;100.00
29909;BME280;36247;51.952;6.146;2023-04-28T08:48:21;100917.63;;;12.26;100.00
29909;BME280;36247;51.952;6.146;2023-04-28T08:50:52;100913.31;;;12.43;100.00
29909;BME280;36247;51.952;6.146;2023-04-28T08:53:23;100913.25;;;12.31;100.00
29909;BME280;36247;51.952;6.146;2023-04-28T08:55:56;100907.94;;;12.34;100.00
29909;BME280;36247;51.952;6.146;2023-04-28T08:58:25;100912.47;;;12.47;100.00
29909;BME280;36247;51.952;6.146;2023-04-28T09:00:51;100927.63;;;12.62;100.00
29909;BME280;36247;51.952;6.146;2023-04-28T09:03:17;100922.53;;;12.95;100.00
29909;BME280;36247;51.952;6.146;2023-04-28T09:05:43;100909.06;;;12.70;100.00
29909;BME280;36247;51.952;6.146;2023-04-28T09:08:09;100920.66;;;12.80;100.00
29909;BME280;36247;51.952;6.146;2023-04-28T09:10:37;100913.63;;;12.94;100.00
29909;BME280;36247;51.952;6.146;2023-04-28T09:13:24;100917.09;;;12.79;100.00
29909;BME280;36247;51.952;6.146;2023-04-28T09:15:50;100919.88;;;12.96;100.00
29909;BME280;36247;51.952;6.146;2023-04-28T09:18:23;100925.06;;;12.76;100.00
29909;BME280;36247;51.952;6.146;2023-04-28T09:20:49;100915.44;;;13.00;100.00
29909;BME280;36247;51.952;6.146;2023-04-28T09:23:20;100917.31;;;13.18;100.00
29909;BME280;36247;51.952;6.146;2023-04-28T09:28:22;100913.63;;;12.94;100.00
29909;BME280;36247;51.952;6.146;2023-04-28T09:30:47;100911.88;;;12.93;100.00
29909;BME280;36247;51.952;6.146;2023-04-28T09:33:13;100914.47;;;12.81;100.00
29909;BME280;36247;51.952;6.146;2023-04-28T09:35:43;100917.38;;;13.29;100.00
29909;BME280;36247;51.952;6.146;2023-04-28T09:38:11;100912.91;;;13.25;100.00
29909;BME280;36247;51.952;6.146;2023-04-28T09:40:51;100907.59;;;13.28;100.00
29909;BME280;36247;51.952;6.146;2023-04-28T09:43:24;100905.03;;;13.51;100.00
29909;BME280;36247;51.952;6.146;2023-04-28T09:45:50;100900.66;;;13.68;100.00
29909;BME280;36247;51.952;6.146;2023-04-28T09:48:17;100891.78;;;13.57;100.00
29909;BME280;36247;51.952;6.146;2023-04-28T09:50:52;100887.38;;;13.85;100.00
29909;BME280;36247;51.952;6.146;2023-04-28T09:53:22;100875.78;;;14.57;100.00
29909;BME280;36247;51.952;6.146;2023-04-28T09:55:48;100882.78;;;15.03;100.00
29909;BME280;36247;51.952;6.146;2023-04-28T09:58:15;100877.53;;;14.58;100.00
29909;BME280;36247;51.952;6.146;2023-04-28T10:00:44;100867.81;;;14.51;100.00
29909;BME280;36247;51.952;6.146;2023-04-28T10:03:11;100880.25;;;14.09;100.00
29909;BME280;36247;51.952;6.146;2023-04-28T10:05:39;100879.34;;;14.53;100.00
29909;BME280;36247;51.952;6.146;2023-04-28T10:08:06;100873.16;;;14.19;100.00
29909;BME280;36247;51.952;6.146;2023-04-28T10:10:33;100871.38;;;14.36;100.00
29909;BME280;36247;51.952;6.146;2023-04-28T10:12:59;100868.72;;;14.41;100.00
29909;BME280;36247;51.952;6.146;2023-04-28T10:15:26;100876.69;;;14.27;100.00
29909;BME280;36247;51.952;6.146;2023-04-28T10:17:52;100872.28;;;14.24;100.00
29909;BME280;36247;51.952;6.146;2023-04-28T10:20:18;100870.47;;;14.33;100.00
29909;BME280;36247;51.952;6.146;2023-04-28T10:23:01;100872.22;;;14.52;100.00
29909;BME280;36247;51.952;6.146;2023-04-28T10:25:34;100874.94;;;14.38;100.00
29909;BME280;36247;51.952;6.146;2023-04-28T10:28:05;100866.97;;;14.23;100.00
29909;BME280;36247;51.952;6.146;2023-04-28T10:30:31;100866.06;;;14.13;100.00
29909;BME280;36247;51.952;6.146;2023-04-28T10:35:40;100872.25;;;14.12;100.00
29909;BME280;36247;51.952;6.146;2023-04-28T10:38:13;100880.28;;;14.24;100.00
29909;BME280;36247;51.952;6.146;2023-04-28T10:40:41;100883.81;;;13.71;100.00
29909;BME280;36247;51.952;6.146;2023-04-28T10:43:09;100877.59;;;14.09;100.00
29909;BME280;36247;51.952;6.146;2023-04-28T10:48:21;100883.81;;;13.71;100.00
29909;BME280;36247;51.952;6.146;2023-04-28T10:56:14;100882.03;;;13.84;100.00
29909;BME280;36247;51.952;6.146;2023-04-28T10:58:48;100887.38;;;13.87;100.00
29909;BME280;36247;51.952;6.146;2023-04-28T11:06:27;100876.69;;;13.81;100.00
29909;BME280;36247;51.952;6.146;2023-04-28T11:08:58;100882.00;;;13.57;100.00
29909;BME280;36247;51.952;6.146;2023-04-28T11:11:31;100881.13;;;13.74;100.00
29909;BME280;36247;51.952;6.146;2023-04-28T11:19:21;100871.41;;;13.96;100.00
29909;BME280;36247;51.952;6.146;2023-04-28T11:21:47;100866.94;;;14.10;100.00
29909;BME280;36247;51.952;6.146;2023-04-28T11:24:13;100877.59;;;13.84;100.00
29909;BME280;36247;51.952;6.146;2023-04-28T11:26:40;100871.41;;;13.87;100.00
29909;BME280;36247;51.952;6.146;2023-04-28T11:29:11;100868.72;;;13.99;100.00
29909;BME280;36247;51.952;6.146;2023-04-28T11:31:39;100868.75;;;13.91;100.00
29909;BME280;36247;51.952;6.146;2023-04-28T11:34:12;100874.94;;;13.84;100.00
29909;BME280;36247;51.952;6.146;2023-04-28T11:36:40;100874.94;;;13.86;100.00
29909;BME280;36247;51.952;6.146;2023-04-28T11:39:09;100872.28;;;13.93;100.00
29909;BME280;36247;51.952;6.146;2023-04-28T11:41:39;100876.69;;;14.25;100.00
29909;BME280;36247;51.952;6.146;2023-04-28T11:44:16;100878.50;;;14.02;100.00
29909;BME280;36247;51.952;6.146;2023-04-28T11:46:50;100876.72;;;14.08;100.00
29909;BME280;36247;51.952;6.146;2023-04-28T11:49:19;100875.81;;;14.33;100.00
29909;BME280;36247;51.952;6.146;2023-04-28T11:51:46;100869.63;;;14.20;100.00
29909;BME280;36247;51.952;6.146;2023-04-28T11:54:25;100886.50;;;14.02;100.00
29909;BME280;36247;51.952;6.146;2023-04-28T11:56:53;100880.25;;;14.00;100.00
29909;BME280;36247;51.952;6.146;2023-04-28T11:59:27;100889.13;;;13.86;100.00
29909;BME280;36247;51.952;6.146;2023-04-28T12:07:13;100892.66;;;13.74;100.00
29909;BME280;36247;51.952;6.146;2023-04-28T12:10:10;100896.25;;;13.77;100.00
29909;BME280;36247;51.952;6.146;2023-04-28T12:12:34;100880.25;;;13.72;100.00
29909;BME280;36247;51.952;6.146;2023-04-28T12:15:04;100886.47;;;13.77;100.00
29909;BME280;36247;51.952;6.146;2023-04-28T12:17:40;100888.25;;;13.97;100.00
29909;BME280;36247;51.952;6.146;2023-04-28T12:22:46;100868.72;;;14.19;100.00
29909;BME280;36247;51.952;6.146;2023-04-28T12:25:14;100874.97;;;14.17;100.00
29909;BME280;36247;51.952;6.146;2023-04-28T12:27:41;100876.69;;;14.30;100.00
29909;BME280;36247;51.952;6.146;2023-04-28T12:32:47;100874.97;;;14.17;100.00
29909;BME280;36247;51.952;6.146;2023-04-28T12:35:14;100875.81;;;13.97;100.00
29909;BME280;36247;51.952;6.146;2023-04-28T12:37:41;100870.50;;;13.94;100.00
29909;BME280;36247;51.952;6.146;2023-04-28T12:40:08;100885.59;;;13.90;100.00
29909;BME280;36247;51.952;6.146;2023-04-28T12:42:35;100880.28;;;13.98;100.00
29909;BME280;36247;51.952;6.146;2023-04-28T12:45:02;100876.69;;;13.81;100.00
29909;BME280;36247;51.952;6.146;2023-04-28T12:47:28;100889.13;;;13.83;100.00
29909;BME280;36247;51.952;6.146;2023-04-28T12:49:53;100883.81;;;13.89;100.00
29909;BME280;36247;51.952;6.146;2023-04-28T12:52:19;100890.03;;;13.95;100.00
29909;BME280;36247;51.952;6.146;2023-04-28T12:54:46;100885.59;;;13.97;100.00
29909;BME280;36247;51.952;6.146;2023-04-28T12:57:12;100882.88;;;13.63;100.00
29909;BME280;36247;51.952;6.146;2023-04-28T12:59:40;100890.88;;;13.69;100.00
29909;BME280;36247;51.952;6.146;2023-04-28T13:02:06;100884.69;;;13.74;100.00
29909;BME280;36247;51.952;6.146;2023-04-28T13:04:34;100899.78;;;13.77;100.00
29909;BME280;36247;51.952;6.146;2023-04-28T13:07:00;100893.59;;;13.84;100.00
29909;BME280;36247;51.952;6.146;2023-04-28T13:09:26;100891.84;;;14.02;100.00
29909;BME280;36247;51.952;6.146;2023-04-28T13:11:52;100886.50;;;14.00;100.00
29909;BME280;36247;51.952;6.146;2023-04-28T13:14:19;100887.38;;;13.91;100.00
29909;BME280;36247;51.952;6.146;2023-04-28T13:16:44;100886.47;;;13.96;100.00
29909;BME280;36247;51.952;6.146;2023-04-28T13:19:11;100888.25;;;13.80;100.00
29909;BME280;36247;51.952;6.146;2023-04-28T13:21:40;100882.88;;;13.64;100.00